Zubia, Spain
Current Conditions -  °F | °C
As of 11:30 AM on Thursday 18 Dec 2014 (Local Time) from LEGR Reporting Station
Clear Clear  
Wind Chill: 46°   Ceiling: Unl
Heat Index: 46°   Visibility: 6mi
Dew Point: 41°   Wind: 0mph
Humidity: 81%   Direction: NA
Pressure: 30.36"   Gusts: NA
Location:  37.12°N, 3.58°W
Report Text: LEGR 181030Z 00000KT CAVOK 08/05 Q1028
Loading
Personal Weather Stations






























Interactive Weather Map New forecast layout! Learn more

10-Day Weather Forecast

Advertisements
Track Severe Weather on mobile